ETH884 FMMI-HAAB
Flight info
| Callsign | ETH884 |
|---|---|
| Flight time | 4h 14m |
| Altitude | 36000 |
| Route | KEKIN1E TN UA401 KINAN/N0466F360 UT913 EGPET/N0460F370 UL431 MOV UN301 ALEMU/N0457F380 T129 IMKIT IMKIT1A |
| Aircraft | B738/M-SDE2E3FGHIRWXY/LB1 |
Departure
| Time | 2026-04-26 15:46 |
|---|---|
| Airport | Ivato International Airport (FMMI) |
Arrival
| Time | 2026-04-26 20:00 |
|---|---|
| Airport | Addis Ababa Bole International Airport (HAAB) |
| Time | Latitude | Longitude | Altitude | Speed | Heading |
|---|---|---|---|---|---|
| 2026-04-26 15:27 | -18.79994 | 47.47916 | 4165 ft | 0 kts | 188° |
| 2026-04-26 15:37 | -18.79987 | 47.47917 | 4165 ft | 4 kts | 189° |
| 2026-04-26 15:37 | -18.79960 | 47.47923 | 4165 ft | 4 kts | 193° |
| 2026-04-26 15:38 | -18.79934 | 47.47930 | 4165 ft | 4 kts | 199° |
| 2026-04-26 15:38 | -18.79910 | 47.47941 | 4165 ft | 4 kts | 213° |
| 2026-04-26 15:38 | -18.79896 | 47.47952 | 4165 ft | 4 kts | 236° |
| 2026-04-26 15:38 | -18.79891 | 47.47971 | 4165 ft | 1 kts | 278° |
| 2026-04-26 15:39 | -18.79891 | 47.47972 | 4165 ft | 0 kts | 278° |
| 2026-04-26 15:41 | -18.79887 | 47.47945 | 4165 ft | 7 kts | 278° |
| 2026-04-26 15:41 | -18.79878 | 47.47882 | 4165 ft | 11 kts | 278° |
| 2026-04-26 15:41 | -18.79863 | 47.47829 | 4165 ft | 12 kts | 298° |
| 2026-04-26 15:41 | -18.79838 | 47.47751 | 4165 ft | 10 kts | 282° |
| 2026-04-26 15:42 | -18.79826 | 47.47679 | 4165 ft | 10 kts | 280° |
| 2026-04-26 15:42 | -18.79790 | 47.47598 | 4165 ft | 9 kts | 334° |
| 2026-04-26 15:42 | -18.79747 | 47.47595 | 4164 ft | 9 kts | 8° |
| 2026-04-26 15:42 | -18.79687 | 47.47604 | 4163 ft | 9 kts | 359° |
| 2026-04-26 15:43 | -18.79645 | 47.47564 | 4162 ft | 9 kts | 291° |
| 2026-04-26 15:43 | -18.79630 | 47.47468 | 4161 ft | 19 kts | 278° |
| 2026-04-26 15:43 | -18.79581 | 47.47146 | 4160 ft | 22 kts | 279° |
| 2026-04-26 15:44 | -18.79556 | 47.46987 | 4159 ft | 22 kts | 279° |
| 2026-04-26 15:44 | -18.79510 | 47.46683 | 4160 ft | 20 kts | 278° |
| 2026-04-26 15:44 | -18.79489 | 47.46539 | 4160 ft | 19 kts | 281° |
| 2026-04-26 15:45 | -18.79481 | 47.46487 | 4160 ft | 9 kts | 99° |
| 2026-04-26 15:45 | -18.79500 | 47.46620 | 4160 ft | 45 kts | 98° |
| 2026-04-26 15:46 | -18.79736 | 47.48199 | 4163 ft | 165 kts | 99° |
| 2026-04-26 15:46 | -18.79950 | 47.49468 | 4650 ft | 177 kts | 99° |
| 2026-04-26 15:46 | -18.80150 | 47.50776 | 5443 ft | 181 kts | 99° |
| 2026-04-26 15:46 | -18.80276 | 47.51657 | 5933 ft | 184 kts | 99° |
| 2026-04-26 15:47 | -18.80562 | 47.53596 | 6269 ft | 216 kts | 100° |
| 2026-04-26 15:47 | -18.80126 | 47.56905 | 6610 ft | 256 kts | 53° |
| 2026-04-26 15:47 | -18.78695 | 47.58114 | 6789 ft | 278 kts | 23° |
| 2026-04-26 15:48 | -18.76746 | 47.58461 | 7143 ft | 291 kts | 353° |
| 2026-04-26 15:48 | -18.74859 | 47.57768 | 7887 ft | 289 kts | 324° |
| 2026-04-26 15:48 | -18.73356 | 47.56360 | 8538 ft | 291 kts | 311° |
| 2026-04-26 15:48 | -18.72028 | 47.54740 | 9255 ft | 292 kts | 307° |
| 2026-04-26 15:49 | -18.70729 | 47.53080 | 9983 ft | 294 kts | 307° |
| 2026-04-26 15:49 | -18.69407 | 47.51404 | 10518 ft | 303 kts | 308° |
| 2026-04-26 15:49 | -18.67991 | 47.49642 | 10672 ft | 326 kts | 309° |
| 2026-04-26 15:49 | -18.66466 | 47.47778 | 10819 ft | 346 kts | 309° |
| 2026-04-26 15:50 | -18.64837 | 47.45815 | 10996 ft | 363 kts | 310° |
| 2026-04-26 15:50 | -18.63141 | 47.43793 | 11397 ft | 372 kts | 310° |
| 2026-04-26 15:50 | -18.61412 | 47.41744 | 11919 ft | 376 kts | 311° |
| 2026-04-26 15:50 | -18.59668 | 47.39682 | 12470 ft | 379 kts | 311° |
| 2026-04-26 15:51 | -18.57900 | 47.37596 | 12963 ft | 383 kts | 311° |
| 2026-04-26 15:51 | -18.56112 | 47.35489 | 13475 ft | 387 kts | 312° |
| 2026-04-26 15:51 | -18.54304 | 47.33359 | 13977 ft | 391 kts | 312° |
| 2026-04-26 15:51 | -18.52492 | 47.31224 | 14458 ft | 393 kts | 312° |
| 2026-04-26 15:52 | -18.50662 | 47.29069 | 14918 ft | 395 kts | 312° |
| 2026-04-26 15:52 | -18.48826 | 47.26905 | 15403 ft | 397 kts | 311° |
| 2026-04-26 15:52 | -18.46976 | 47.24725 | 15807 ft | 401 kts | 311° |
| 2026-04-26 15:52 | -18.45737 | 47.23267 | 16097 ft | 403 kts | 312° |
| 2026-04-26 15:53 | -18.43003 | 47.20568 | 16738 ft | 405 kts | 321° |
| 2026-04-26 15:53 | -18.40773 | 47.18791 | 17121 ft | 409 kts | 323° |
| 2026-04-26 15:53 | -18.38451 | 47.16996 | 17617 ft | 409 kts | 323° |
| 2026-04-26 15:53 | -18.36203 | 47.15205 | 18052 ft | 412 kts | 322° |
| 2026-04-26 15:54 | -18.33905 | 47.13322 | 18441 ft | 415 kts | 321° |
| 2026-04-26 15:54 | -18.31569 | 47.11530 | 18778 ft | 417 kts | 331° |
| 2026-04-26 15:54 | -18.28860 | 47.10452 | 19191 ft | 417 kts | 344° |
| 2026-04-26 15:54 | -18.26066 | 47.09651 | 19612 ft | 417 kts | 345° |
| 2026-04-26 15:55 | -18.23256 | 47.08862 | 19936 ft | 420 kts | 345° |
| 2026-04-26 15:55 | -18.20424 | 47.08060 | 20290 ft | 422 kts | 344° |
| 2026-04-26 15:55 | -18.17593 | 47.07247 | 20675 ft | 422 kts | 344° |
| 2026-04-26 15:55 | -18.14759 | 47.06421 | 21062 ft | 423 kts | 344° |
| 2026-04-26 15:56 | -18.11922 | 47.05587 | 21419 ft | 424 kts | 344° |
| 2026-04-26 15:56 | -18.09069 | 47.04744 | 21768 ft | 426 kts | 343° |
| 2026-04-26 15:56 | -18.06213 | 47.03900 | 22113 ft | 427 kts | 343° |
| 2026-04-26 15:56 | -18.03384 | 47.03063 | 22469 ft | 428 kts | 343° |
| 2026-04-26 15:57 | -18.00469 | 47.02202 | 22809 ft | 430 kts | 343° |
| 2026-04-26 15:57 | -17.97583 | 47.01351 | 23127 ft | 432 kts | 343° |
| 2026-04-26 15:57 | -17.94680 | 47.00496 | 23420 ft | 434 kts | 343° |
| 2026-04-26 15:57 | -17.92750 | 46.99926 | 23607 ft | 435 kts | 343° |
| 2026-04-26 15:58 | -17.88878 | 46.98789 | 23945 ft | 438 kts | 343° |
| 2026-04-26 15:58 | -17.85942 | 46.97929 | 24217 ft | 439 kts | 343° |
| 2026-04-26 15:58 | -17.82999 | 46.97067 | 24492 ft | 440 kts | 343° |
| 2026-04-26 15:58 | -17.80048 | 46.96203 | 24747 ft | 441 kts | 343° |
| 2026-04-26 15:59 | -17.77090 | 46.95337 | 24991 ft | 443 kts | 343° |
| 2026-04-26 15:59 | -17.74118 | 46.94467 | 25228 ft | 444 kts | 343° |
| 2026-04-26 15:59 | -17.71139 | 46.93594 | 25487 ft | 445 kts | 343° |
| 2026-04-26 15:59 | -17.68149 | 46.92719 | 25726 ft | 447 kts | 343° |
| 2026-04-26 16:00 | -17.65148 | 46.91841 | 25957 ft | 448 kts | 343° |
| 2026-04-26 16:00 | -17.62145 | 46.90963 | 26190 ft | 449 kts | 343° |
| 2026-04-26 16:00 | -17.59128 | 46.90080 | 26408 ft | 451 kts | 343° |
| 2026-04-26 16:00 | -17.56103 | 46.89196 | 26629 ft | 452 kts | 343° |
| 2026-04-26 16:01 | -17.53066 | 46.88309 | 26852 ft | 453 kts | 343° |
| 2026-04-26 16:01 | -17.50023 | 46.87420 | 27065 ft | 455 kts | 343° |
| 2026-04-26 16:01 | -17.46971 | 46.86528 | 27279 ft | 456 kts | 342° |
| 2026-04-26 16:01 | -17.43908 | 46.85634 | 27488 ft | 458 kts | 342° |
| 2026-04-26 16:02 | -17.40835 | 46.84737 | 27704 ft | 459 kts | 342° |
| 2026-04-26 16:02 | -17.37752 | 46.83838 | 27914 ft | 460 kts | 342° |
| 2026-04-26 16:02 | -17.34663 | 46.82937 | 28144 ft | 461 kts | 342° |
| 2026-04-26 16:02 | -17.32620 | 46.82341 | 28312 ft | 461 kts | 342° |
| 2026-04-26 16:03 | -17.28479 | 46.81133 | 28489 ft | 464 kts | 342° |
| 2026-04-26 16:03 | -17.25357 | 46.80223 | 28645 ft | 466 kts | 342° |
| 2026-04-26 16:03 | -17.22228 | 46.79313 | 28830 ft | 467 kts | 342° |
| 2026-04-26 16:03 | -17.19092 | 46.78401 | 29058 ft | 468 kts | 342° |
| 2026-04-26 16:04 | -17.15964 | 46.77491 | 29340 ft | 466 kts | 342° |
| 2026-04-26 16:04 | -17.12839 | 46.76583 | 29648 ft | 465 kts | 342° |
| 2026-04-26 16:04 | -17.09730 | 46.75680 | 29913 ft | 464 kts | 342° |
| 2026-04-26 16:04 | -17.06611 | 46.74773 | 30138 ft | 464 kts | 342° |
| 2026-04-26 16:05 | -17.03505 | 46.73871 | 30377 ft | 464 kts | 341° |
| 2026-04-26 16:05 | -17.00396 | 46.72968 | 30639 ft | 462 kts | 341° |
| 2026-04-26 16:05 | -16.97306 | 46.72071 | 30897 ft | 461 kts | 341° |
| 2026-04-26 16:05 | -16.94262 | 46.71187 | 31140 ft | 460 kts | 341° |
| 2026-04-26 16:06 | -16.91181 | 46.70293 | 31393 ft | 459 kts | 341° |
| 2026-04-26 16:06 | -16.88106 | 46.69400 | 31653 ft | 458 kts | 341° |
| 2026-04-26 16:06 | -16.85042 | 46.68512 | 31905 ft | 457 kts | 341° |
| 2026-04-26 16:06 | -16.81985 | 46.67626 | 32151 ft | 456 kts | 341° |
| 2026-04-26 16:07 | -16.78929 | 46.66740 | 32396 ft | 455 kts | 341° |
| 2026-04-26 16:07 | -16.75890 | 46.65860 | 32677 ft | 453 kts | 341° |
| 2026-04-26 16:07 | -16.72857 | 46.64982 | 32946 ft | 452 kts | 341° |
| 2026-04-26 16:07 | -16.69827 | 46.64104 | 33190 ft | 451 kts | 340° |
| 2026-04-26 16:08 | -16.66807 | 46.63230 | 33433 ft | 450 kts | 340° |
| 2026-04-26 16:08 | -16.64805 | 46.62651 | 33602 ft | 450 kts | 340° |
| 2026-04-26 16:08 | -16.60783 | 46.61487 | 33924 ft | 448 kts | 340° |
| 2026-04-26 16:08 | -16.57781 | 46.60619 | 34136 ft | 447 kts | 340° |
| 2026-04-26 16:09 | -16.54788 | 46.59754 | 34327 ft | 446 kts | 340° |
| 2026-04-26 16:09 | -16.51796 | 46.58889 | 34509 ft | 446 kts | 340° |
| 2026-04-26 16:09 | -16.48812 | 46.58027 | 34701 ft | 445 kts | 340° |
| 2026-04-26 16:09 | -16.45829 | 46.57165 | 34903 ft | 444 kts | 340° |
| 2026-04-26 16:10 | -16.42850 | 46.56305 | 35071 ft | 444 kts | 340° |
| 2026-04-26 16:10 | -16.39875 | 46.55445 | 35231 ft | 444 kts | 340° |
| 2026-04-26 16:10 | -16.36900 | 46.54585 | 35402 ft | 443 kts | 341° |
| 2026-04-26 16:10 | -16.33934 | 46.53727 | 35581 ft | 442 kts | 340° |
| 2026-04-26 16:11 | -16.31008 | 46.52882 | 35744 ft | 442 kts | 340° |
| 2026-04-26 16:11 | -16.28047 | 46.52026 | 35896 ft | 442 kts | 341° |
| 2026-04-26 16:11 | -16.25081 | 46.51169 | 35910 ft | 444 kts | 341° |
| 2026-04-26 16:12 | -16.19100 | 46.49441 | 35931 ft | 448 kts | 341° |
| 2026-04-26 16:12 | -16.10030 | 46.46824 | 35934 ft | 454 kts | 341° |
| 2026-04-26 16:13 | -16.03927 | 46.45065 | 35922 ft | 456 kts | 341° |
| 2026-04-26 16:13 | -15.97805 | 46.43302 | 35919 ft | 457 kts | 341° |
| 2026-04-26 16:14 | -15.91671 | 46.41537 | 35922 ft | 457 kts | 341° |
| 2026-04-26 16:15 | -15.82473 | 46.38891 | 35929 ft | 457 kts | 341° |
| 2026-04-26 16:15 | -15.76352 | 46.37132 | 35935 ft | 456 kts | 341° |
| 2026-04-26 16:16 | -15.67253 | 46.34340 | 35933 ft | 451 kts | 333° |
| 2026-04-26 16:16 | -15.61918 | 46.31071 | 35942 ft | 444 kts | 319° |
| 2026-04-26 16:17 | -15.57093 | 46.27082 | 35936 ft | 443 kts | 319° |
| 2026-04-26 16:17 | -15.52309 | 46.23119 | 35924 ft | 437 kts | 319° |
| 2026-04-26 16:18 | -15.45186 | 46.17282 | 35923 ft | 433 kts | 319° |
| 2026-04-26 16:19 | -15.38090 | 46.11499 | 35921 ft | 432 kts | 319° |
| 2026-04-26 16:20 | -15.30996 | 46.05724 | 35926 ft | 433 kts | 319° |
| 2026-04-26 16:20 | -15.23859 | 45.99918 | 35921 ft | 436 kts | 319° |
| 2026-04-26 16:21 | -15.19073 | 45.96027 | 35924 ft | 438 kts | 320° |
| 2026-04-26 16:21 | -15.14265 | 45.92122 | 35925 ft | 441 kts | 320° |
| 2026-04-26 16:22 | -15.09430 | 45.88197 | 35926 ft | 442 kts | 320° |
| 2026-04-26 16:22 | -15.04613 | 45.84288 | 35928 ft | 444 kts | 320° |
| 2026-04-26 16:23 | -14.99753 | 45.80348 | 35927 ft | 444 kts | 320° |
| 2026-04-26 16:23 | -14.94887 | 45.76405 | 35925 ft | 444 kts | 320° |
| 2026-04-26 16:24 | -14.90022 | 45.72465 | 35926 ft | 444 kts | 320° |
| 2026-04-26 16:24 | -14.85166 | 45.68534 | 35928 ft | 443 kts | 320° |
| 2026-04-26 16:25 | -14.80320 | 45.64614 | 35928 ft | 442 kts | 320° |
| 2026-04-26 16:25 | -14.75480 | 45.60701 | 35927 ft | 441 kts | 320° |
| 2026-04-26 16:26 | -14.71438 | 45.57435 | 35932 ft | 440 kts | 320° |
| 2026-04-26 16:26 | -14.65839 | 45.52913 | 35933 ft | 439 kts | 320° |
| 2026-04-26 16:27 | -14.61025 | 45.49027 | 35933 ft | 439 kts | 320° |
| 2026-04-26 16:27 | -14.56216 | 45.45148 | 35934 ft | 439 kts | 320° |
| 2026-04-26 16:28 | -14.51405 | 45.41269 | 35936 ft | 439 kts | 320° |
| 2026-04-26 16:28 | -14.46588 | 45.37388 | 35940 ft | 440 kts | 320° |
| 2026-04-26 16:29 | -14.41758 | 45.33499 | 35939 ft | 441 kts | 320° |
| 2026-04-26 16:29 | -14.36923 | 45.29607 | 35939 ft | 441 kts | 321° |
| 2026-04-26 16:30 | -14.32076 | 45.25709 | 35941 ft | 442 kts | 321° |
| 2026-04-26 16:30 | -14.28036 | 45.22461 | 35941 ft | 443 kts | 321° |
| 2026-04-26 16:31 | -14.23167 | 45.18548 | 35940 ft | 444 kts | 321° |
| 2026-04-26 16:31 | -14.18294 | 45.14635 | 35943 ft | 445 kts | 321° |
| 2026-04-26 16:32 | -14.13407 | 45.10713 | 35942 ft | 445 kts | 321° |
| 2026-04-26 16:32 | -14.08518 | 45.06791 | 35942 ft | 446 kts | 321° |
| 2026-04-26 16:33 | -14.03628 | 45.02870 | 35944 ft | 446 kts | 321° |
| 2026-04-26 16:33 | -13.98737 | 44.98951 | 35944 ft | 446 kts | 321° |
| 2026-04-26 16:34 | -13.93841 | 44.95031 | 35941 ft | 446 kts | 321° |
| 2026-04-26 16:34 | -13.88948 | 44.91114 | 35945 ft | 445 kts | 321° |
| 2026-04-26 16:35 | -13.84058 | 44.87202 | 35946 ft | 445 kts | 321° |
| 2026-04-26 16:35 | -13.79170 | 44.83294 | 35944 ft | 445 kts | 321° |
| 2026-04-26 16:36 | -13.74283 | 44.79388 | 35946 ft | 445 kts | 321° |
| 2026-04-26 16:36 | -13.69396 | 44.75485 | 35946 ft | 445 kts | 321° |
| 2026-04-26 16:37 | -13.64506 | 44.71582 | 35950 ft | 445 kts | 321° |
| 2026-04-26 16:37 | -13.59619 | 44.67683 | 35945 ft | 445 kts | 321° |
| 2026-04-26 16:38 | -13.54726 | 44.63781 | 35945 ft | 445 kts | 321° |
| 2026-04-26 16:38 | -13.49835 | 44.59882 | 35947 ft | 445 kts | 321° |
| 2026-04-26 16:39 | -13.44941 | 44.55984 | 35948 ft | 445 kts | 321° |
| 2026-04-26 16:39 | -13.40070 | 44.52105 | 35946 ft | 446 kts | 321° |
| 2026-04-26 16:40 | -13.35181 | 44.48216 | 35970 ft | 439 kts | 320° |
| 2026-04-26 16:40 | -13.30430 | 44.44443 | 35937 ft | 427 kts | 320° |
| 2026-04-26 16:41 | -13.25753 | 44.40732 | 35948 ft | 424 kts | 320° |
| 2026-04-26 16:41 | -13.21088 | 44.37032 | 35958 ft | 425 kts | 320° |
| 2026-04-26 16:42 | -13.16385 | 44.33300 | 35957 ft | 430 kts | 320° |
| 2026-04-26 16:42 | -13.11630 | 44.29529 | 35955 ft | 434 kts | 320° |
| 2026-04-26 16:43 | -13.06832 | 44.25728 | 35953 ft | 437 kts | 320° |
| 2026-04-26 16:43 | -13.02010 | 44.21909 | 35949 ft | 438 kts | 320° |
| 2026-04-26 16:44 | -12.97182 | 44.18087 | 35949 ft | 438 kts | 320° |
| 2026-04-26 16:44 | -12.92361 | 44.14274 | 35947 ft | 437 kts | 320° |
| 2026-04-26 16:45 | -12.87560 | 44.10477 | 35947 ft | 435 kts | 320° |
| 2026-04-26 16:45 | -12.82776 | 44.06696 | 35948 ft | 433 kts | 321° |
| 2026-04-26 16:46 | -12.78020 | 44.02939 | 35950 ft | 431 kts | 321° |
| 2026-04-26 16:46 | -12.73280 | 43.99195 | 35951 ft | 429 kts | 321° |
| 2026-04-26 16:47 | -12.68553 | 43.95465 | 35956 ft | 428 kts | 321° |
| 2026-04-26 16:47 | -12.63838 | 43.91744 | 35958 ft | 428 kts | 321° |
| 2026-04-26 16:48 | -12.59151 | 43.88049 | 35956 ft | 429 kts | 321° |
| 2026-04-26 16:48 | -12.54420 | 43.84320 | 35958 ft | 430 kts | 321° |
| 2026-04-26 16:49 | -12.49679 | 43.80584 | 35961 ft | 431 kts | 321° |
| 2026-04-26 16:49 | -12.44916 | 43.76834 | 35957 ft | 432 kts | 321° |
| 2026-04-26 16:50 | -12.40140 | 43.73076 | 35960 ft | 434 kts | 321° |
| 2026-04-26 16:50 | -12.35350 | 43.69307 | 35960 ft | 435 kts | 321° |
| 2026-04-26 16:51 | -12.30543 | 43.65528 | 35960 ft | 437 kts | 321° |
| 2026-04-26 16:51 | -12.25718 | 43.61735 | 35957 ft | 438 kts | 321° |
| 2026-04-26 16:52 | -12.21669 | 43.58555 | 35959 ft | 438 kts | 321° |
| 2026-04-26 16:52 | -12.16056 | 43.54148 | 35960 ft | 438 kts | 321° |
| 2026-04-26 16:53 | -12.11223 | 43.50355 | 35964 ft | 438 kts | 321° |
| 2026-04-26 16:53 | -12.06391 | 43.46565 | 35963 ft | 437 kts | 321° |
| 2026-04-26 16:54 | -12.01566 | 43.42782 | 35963 ft | 437 kts | 321° |
| 2026-04-26 16:54 | -11.96745 | 43.39004 | 35960 ft | 437 kts | 321° |
| 2026-04-26 16:55 | -11.91926 | 43.35229 | 35961 ft | 436 kts | 322° |
| 2026-04-26 16:55 | -11.87114 | 43.31461 | 35961 ft | 436 kts | 322° |
| 2026-04-26 16:56 | -11.79890 | 43.25809 | 35952 ft | 436 kts | 322° |
| 2026-04-26 16:57 | -11.75073 | 43.22041 | 35947 ft | 436 kts | 322° |
| 2026-04-26 16:57 | -11.67843 | 43.16389 | 35948 ft | 437 kts | 322° |
| 2026-04-26 16:58 | -11.63830 | 43.13254 | 35946 ft | 437 kts | 322° |
| 2026-04-26 16:59 | -11.55795 | 43.06981 | 35948 ft | 438 kts | 322° |
| 2026-04-26 17:00 | -11.46112 | 42.99427 | 35954 ft | 439 kts | 322° |
| 2026-04-26 17:00 | -11.38829 | 42.93749 | 35966 ft | 439 kts | 322° |
| 2026-04-26 17:01 | -11.33967 | 42.89961 | 35965 ft | 440 kts | 322° |
| 2026-04-26 17:01 | -11.29106 | 42.86175 | 35962 ft | 440 kts | 322° |
| 2026-04-26 17:02 | -11.24240 | 42.82387 | 35965 ft | 440 kts | 322° |
| 2026-04-26 17:02 | -11.19374 | 42.78601 | 35966 ft | 440 kts | 322° |
| 2026-04-26 17:03 | -11.14506 | 42.74815 | 35964 ft | 440 kts | 322° |
| 2026-04-26 17:03 | -11.09631 | 42.71025 | 35962 ft | 441 kts | 322° |
| 2026-04-26 17:04 | -11.04758 | 42.67237 | 35965 ft | 441 kts | 322° |
| 2026-04-26 17:04 | -10.99884 | 42.63452 | 35963 ft | 441 kts | 322° |
| 2026-04-26 17:05 | -10.95005 | 42.59664 | 35965 ft | 441 kts | 322° |
| 2026-04-26 17:05 | -10.90130 | 42.55879 | 35965 ft | 441 kts | 322° |
| 2026-04-26 17:06 | -10.85279 | 42.52116 | 35968 ft | 441 kts | 322° |
| 2026-04-26 17:06 | -10.80397 | 42.48328 | 35966 ft | 442 kts | 322° |
| 2026-04-26 17:07 | -10.75510 | 42.44540 | 35967 ft | 442 kts | 322° |
| 2026-04-26 17:07 | -10.70414 | 42.41044 | 35973 ft | 442 kts | 328° |
| 2026-04-26 17:08 | -10.65174 | 42.37781 | 35964 ft | 442 kts | 328° |
| 2026-04-26 17:08 | -10.59923 | 42.34519 | 35969 ft | 442 kts | 328° |
| 2026-04-26 17:09 | -10.55567 | 42.31790 | 35968 ft | 443 kts | 328° |
| 2026-04-26 17:09 | -10.49442 | 42.27937 | 35966 ft | 443 kts | 328° |
| 2026-04-26 17:10 | -10.44199 | 42.24634 | 35967 ft | 443 kts | 328° |
| 2026-04-26 17:10 | -10.38954 | 42.21331 | 35965 ft | 444 kts | 328° |
| 2026-04-26 17:11 | -10.33708 | 42.18029 | 35968 ft | 444 kts | 328° |
| 2026-04-26 17:11 | -10.28457 | 42.14726 | 35968 ft | 444 kts | 328° |
| 2026-04-26 17:12 | -10.20575 | 42.09771 | 35967 ft | 444 kts | 328° |
| 2026-04-26 17:13 | -10.12696 | 42.04820 | 35967 ft | 444 kts | 328° |
| 2026-04-26 17:14 | -10.04816 | 41.99872 | 35968 ft | 444 kts | 328° |
| 2026-04-26 17:14 | -9.96968 | 41.94947 | 35966 ft | 444 kts | 328° |
| 2026-04-26 17:15 | -9.89082 | 41.90001 | 35962 ft | 444 kts | 328° |
| 2026-04-26 17:16 | -9.83830 | 41.86708 | 35966 ft | 444 kts | 328° |
| 2026-04-26 17:16 | -9.78566 | 41.83409 | 35963 ft | 444 kts | 328° |
| 2026-04-26 17:17 | -9.73305 | 41.80113 | 35968 ft | 445 kts | 328° |
| 2026-04-26 17:17 | -9.68041 | 41.76817 | 35968 ft | 445 kts | 328° |
| 2026-04-26 17:18 | -9.62775 | 41.73520 | 35971 ft | 445 kts | 328° |
| 2026-04-26 17:18 | -9.57506 | 41.70224 | 35968 ft | 445 kts | 328° |
| 2026-04-26 17:19 | -9.49594 | 41.65275 | 35972 ft | 446 kts | 328° |
| 2026-04-26 17:19 | -9.44314 | 41.61974 | 35967 ft | 446 kts | 328° |
| 2026-04-26 17:20 | -9.40814 | 41.59787 | 35966 ft | 446 kts | 329° |
| 2026-04-26 17:20 | -9.34634 | 41.55925 | 35973 ft | 447 kts | 329° |
| 2026-04-26 17:21 | -9.28482 | 41.52083 | 35965 ft | 447 kts | 329° |
| 2026-04-26 17:21 | -9.24044 | 41.49313 | 35970 ft | 447 kts | 329° |
| 2026-04-26 17:22 | -9.18746 | 41.46006 | 35968 ft | 448 kts | 329° |
| 2026-04-26 17:22 | -9.13442 | 41.42697 | 35971 ft | 448 kts | 329° |
| 2026-04-26 17:23 | -9.08135 | 41.39387 | 35972 ft | 448 kts | 329° |
| 2026-04-26 17:23 | -9.02829 | 41.36080 | 35965 ft | 448 kts | 329° |
| 2026-04-26 17:24 | -8.97550 | 41.32790 | 35970 ft | 448 kts | 329° |
| 2026-04-26 17:24 | -8.92202 | 41.29458 | 35970 ft | 449 kts | 329° |
| 2026-04-26 17:25 | -8.86886 | 41.26147 | 35970 ft | 449 kts | 329° |
| 2026-04-26 17:25 | -8.81607 | 41.22861 | 35968 ft | 449 kts | 329° |
| 2026-04-26 17:26 | -8.76291 | 41.19553 | 35968 ft | 449 kts | 329° |
| 2026-04-26 17:26 | -8.70970 | 41.16242 | 35968 ft | 449 kts | 329° |
| 2026-04-26 17:27 | -8.65655 | 41.12936 | 35970 ft | 449 kts | 329° |
| 2026-04-26 17:27 | -8.60331 | 41.09626 | 35969 ft | 449 kts | 329° |
| 2026-04-26 17:28 | -8.55009 | 41.06319 | 35968 ft | 449 kts | 329° |
| 2026-04-26 17:28 | -8.49691 | 41.03014 | 35975 ft | 449 kts | 329° |
| 2026-04-26 17:29 | -8.45265 | 41.00265 | 35972 ft | 449 kts | 329° |
| 2026-04-26 17:29 | -8.39045 | 40.96403 | 35971 ft | 449 kts | 329° |
| 2026-04-26 17:30 | -8.33716 | 40.93095 | 35969 ft | 449 kts | 329° |
| 2026-04-26 17:30 | -8.28394 | 40.89792 | 35972 ft | 449 kts | 329° |
| 2026-04-26 17:31 | -8.23062 | 40.86483 | 35971 ft | 450 kts | 329° |
| 2026-04-26 17:31 | -8.17738 | 40.83172 | 35974 ft | 450 kts | 328° |
| 2026-04-26 17:32 | -8.12473 | 40.79752 | 35972 ft | 450 kts | 327° |
| 2026-04-26 17:32 | -8.07227 | 40.76301 | 35972 ft | 450 kts | 327° |
| 2026-04-26 17:33 | -8.01967 | 40.72858 | 35974 ft | 451 kts | 327° |
| 2026-04-26 17:34 | -7.94095 | 40.67727 | 35974 ft | 451 kts | 327° |
| 2026-04-26 17:34 | -7.88818 | 40.64287 | 35973 ft | 452 kts | 327° |
| 2026-04-26 17:35 | -7.83535 | 40.60846 | 35975 ft | 452 kts | 328° |
| 2026-04-26 17:35 | -7.78210 | 40.57451 | 35976 ft | 453 kts | 329° |
| 2026-04-26 17:36 | -7.72846 | 40.54117 | 35974 ft | 453 kts | 329° |
| 2026-04-26 17:36 | -7.67478 | 40.50781 | 35972 ft | 454 kts | 329° |
| 2026-04-26 17:37 | -7.62111 | 40.47432 | 35976 ft | 454 kts | 329° |
| 2026-04-26 17:37 | -7.56738 | 40.44075 | 35974 ft | 454 kts | 329° |
| 2026-04-26 17:38 | -7.48676 | 40.39038 | 35976 ft | 455 kts | 329° |
| 2026-04-26 17:38 | -7.43298 | 40.35680 | 35976 ft | 455 kts | 329° |
| 2026-04-26 17:39 | -7.37916 | 40.32320 | 35975 ft | 455 kts | 329° |
| 2026-04-26 17:39 | -7.32535 | 40.28962 | 35975 ft | 455 kts | 329° |
| 2026-04-26 17:40 | -7.28061 | 40.26171 | 35975 ft | 455 kts | 329° |
| 2026-04-26 17:40 | -7.21769 | 40.22247 | 35979 ft | 455 kts | 329° |
| 2026-04-26 17:41 | -7.16385 | 40.18890 | 35974 ft | 455 kts | 329° |
| 2026-04-26 17:41 | -7.11000 | 40.15533 | 35974 ft | 455 kts | 329° |
| 2026-04-26 17:42 | -7.05617 | 40.12178 | 35974 ft | 455 kts | 329° |
| 2026-04-26 17:42 | -7.00239 | 40.08827 | 35977 ft | 455 kts | 329° |
| 2026-04-26 17:43 | -6.94857 | 40.05475 | 35976 ft | 455 kts | 329° |
| 2026-04-26 17:43 | -6.89477 | 40.02124 | 35979 ft | 455 kts | 329° |
| 2026-04-26 17:44 | -6.84101 | 39.98776 | 35978 ft | 454 kts | 329° |
| 2026-04-26 17:44 | -6.78722 | 39.95429 | 35980 ft | 454 kts | 329° |
| 2026-04-26 17:45 | -6.73350 | 39.92082 | 35978 ft | 454 kts | 329° |
| 2026-04-26 17:45 | -6.67979 | 39.88733 | 35974 ft | 454 kts | 329° |
| 2026-04-26 17:46 | -6.62653 | 39.85412 | 35974 ft | 454 kts | 329° |
| 2026-04-26 17:46 | -6.57276 | 39.82061 | 35974 ft | 454 kts | 329° |
| 2026-04-26 17:47 | -6.52775 | 39.79257 | 35973 ft | 455 kts | 329° |
| 2026-04-26 17:47 | -6.46524 | 39.75362 | 35974 ft | 455 kts | 329° |
| 2026-04-26 17:48 | -6.41148 | 39.71988 | 35974 ft | 456 kts | 329° |
| 2026-04-26 17:48 | -6.35793 | 39.68568 | 35978 ft | 456 kts | 328° |
| 2026-04-26 17:49 | -6.30427 | 39.65145 | 35976 ft | 457 kts | 328° |
| 2026-04-26 17:49 | -6.25048 | 39.61729 | 35977 ft | 457 kts | 329° |
| 2026-04-26 17:50 | -6.19586 | 39.58446 | 35973 ft | 458 kts | 330° |
| 2026-04-26 17:50 | -6.14083 | 39.55205 | 35975 ft | 459 kts | 330° |
| 2026-04-26 17:51 | -6.08582 | 39.51943 | 35982 ft | 459 kts | 330° |
| 2026-04-26 17:51 | -6.03081 | 39.48664 | 35981 ft | 460 kts | 330° |
| 2026-04-26 17:52 | -5.97572 | 39.45381 | 35984 ft | 461 kts | 330° |
| 2026-04-26 17:52 | -5.92057 | 39.42098 | 35984 ft | 461 kts | 332° |
| 2026-04-26 17:53 | -5.89150 | 39.40757 | 35978 ft | 459 kts | 343° |
| 2026-04-26 17:53 | -5.86051 | 39.40009 | 35992 ft | 458 kts | 353° |
| 2026-04-26 17:53 | -5.82880 | 39.39812 | 35980 ft | 457 kts | 4° |
| 2026-04-26 17:54 | -5.76554 | 39.40388 | 35987 ft | 457 kts | 6° |
| 2026-04-26 17:54 | -5.70231 | 39.41040 | 35988 ft | 457 kts | 6° |
| 2026-04-26 17:55 | -5.63898 | 39.41649 | 35989 ft | 457 kts | 6° |
| 2026-04-26 17:55 | -5.57557 | 39.42227 | 35987 ft | 457 kts | 6° |
| 2026-04-26 17:56 | -5.51219 | 39.42797 | 35982 ft | 457 kts | 6° |
| 2026-04-26 17:57 | -5.38604 | 39.43933 | 35983 ft | 456 kts | 6° |
| 2026-04-26 17:57 | -5.32281 | 39.44500 | 35976 ft | 455 kts | 6° |
| 2026-04-26 17:58 | -5.19679 | 39.45639 | 35967 ft | 455 kts | 6° |
| 2026-04-26 17:59 | -5.10222 | 39.46492 | 35965 ft | 455 kts | 6° |
| 2026-04-26 17:59 | -5.03910 | 39.47062 | 35973 ft | 456 kts | 6° |
| 2026-04-26 18:00 | -4.97586 | 39.47632 | 35968 ft | 457 kts | 6° |
| 2026-04-26 18:00 | -4.91230 | 39.48205 | 35968 ft | 459 kts | 6° |
| 2026-04-26 18:01 | -4.84855 | 39.48780 | 35968 ft | 461 kts | 6° |
| 2026-04-26 18:01 | -4.78450 | 39.49357 | 35962 ft | 463 kts | 6° |
| 2026-04-26 18:02 | -4.74197 | 39.49739 | 35964 ft | 464 kts | 6° |
| 2026-04-26 18:02 | -4.65634 | 39.50835 | 35963 ft | 464 kts | 11° |
| 2026-04-26 18:03 | -4.59299 | 39.52079 | 35947 ft | 464 kts | 12° |
| 2026-04-26 18:03 | -4.52970 | 39.53333 | 35955 ft | 463 kts | 12° |
| 2026-04-26 18:04 | -4.46643 | 39.54546 | 35949 ft | 462 kts | 12° |
| 2026-04-26 18:05 | -4.37222 | 39.56323 | 35955 ft | 460 kts | 11° |
| 2026-04-26 18:05 | -4.30939 | 39.57506 | 35955 ft | 458 kts | 11° |
| 2026-04-26 18:06 | -4.24679 | 39.58686 | 35961 ft | 457 kts | 11° |
| 2026-04-26 18:06 | -4.18450 | 39.59860 | 35958 ft | 455 kts | 12° |
| 2026-04-26 18:07 | -4.12220 | 39.61035 | 35964 ft | 454 kts | 12° |
| 2026-04-26 18:07 | -4.06016 | 39.62204 | 35968 ft | 454 kts | 12° |
| 2026-04-26 18:08 | -3.99812 | 39.63374 | 35970 ft | 454 kts | 12° |
| 2026-04-26 18:08 | -3.93587 | 39.64475 | 35962 ft | 455 kts | 7° |
| 2026-04-26 18:09 | -3.87276 | 39.65001 | 35967 ft | 456 kts | 5° |
| 2026-04-26 18:09 | -3.80933 | 39.65395 | 35964 ft | 457 kts | 5° |
| 2026-04-26 18:10 | -3.75646 | 39.65747 | 35957 ft | 459 kts | 5° |
| 2026-04-26 18:10 | -3.69270 | 39.66208 | 35955 ft | 460 kts | 5° |
| 2026-04-26 18:11 | -3.62885 | 39.66685 | 35954 ft | 460 kts | 5° |
| 2026-04-26 18:11 | -3.56496 | 39.67164 | 35951 ft | 461 kts | 5° |
| 2026-04-26 18:12 | -3.50103 | 39.67642 | 35953 ft | 460 kts | 5° |
| 2026-04-26 18:12 | -3.43723 | 39.68118 | 35951 ft | 460 kts | 5° |
| 2026-04-26 18:13 | -3.37347 | 39.68593 | 35955 ft | 459 kts | 5° |
| 2026-04-26 18:13 | -3.30987 | 39.69067 | 35954 ft | 458 kts | 5° |
| 2026-04-26 18:14 | -3.24645 | 39.69540 | 35953 ft | 457 kts | 5° |
| 2026-04-26 18:14 | -3.18305 | 39.70012 | 35955 ft | 456 kts | 5° |
| 2026-04-26 18:15 | -3.11978 | 39.70484 | 35954 ft | 456 kts | 5° |
| 2026-04-26 18:15 | -3.05664 | 39.70954 | 35958 ft | 455 kts | 5° |
| 2026-04-26 18:16 | -2.99386 | 39.71422 | 35962 ft | 455 kts | 5° |
| 2026-04-26 18:16 | -2.89877 | 39.72131 | 35958 ft | 455 kts | 5° |
| 2026-04-26 18:17 | -2.83604 | 39.72598 | 35956 ft | 455 kts | 5° |
| 2026-04-26 18:17 | -2.77286 | 39.73069 | 35961 ft | 455 kts | 5° |
| 2026-04-26 18:18 | -2.70973 | 39.73539 | 35960 ft | 455 kts | 5° |
| 2026-04-26 18:18 | -2.64657 | 39.74009 | 35961 ft | 455 kts | 5° |
| 2026-04-26 18:19 | -2.58334 | 39.74472 | 35961 ft | 455 kts | 5° |
| 2026-04-26 18:19 | -2.52018 | 39.74915 | 35957 ft | 455 kts | 5° |
| 2026-04-26 18:20 | -2.45695 | 39.75356 | 35959 ft | 455 kts | 5° |
| 2026-04-26 18:20 | -2.40440 | 39.75725 | 35957 ft | 455 kts | 5° |
| 2026-04-26 18:21 | -2.33056 | 39.76244 | 35953 ft | 455 kts | 5° |
| 2026-04-26 18:21 | -2.26729 | 39.76690 | 35954 ft | 455 kts | 5° |
| 2026-04-26 18:22 | -2.20409 | 39.77135 | 35951 ft | 455 kts | 5° |
| 2026-04-26 18:22 | -2.14089 | 39.77580 | 35948 ft | 456 kts | 5° |
| 2026-04-26 18:23 | -2.07761 | 39.78026 | 35950 ft | 456 kts | 5° |
| 2026-04-26 18:23 | -2.01434 | 39.78471 | 35950 ft | 456 kts | 5° |
| 2026-04-26 18:24 | -1.95103 | 39.78917 | 35951 ft | 457 kts | 5° |
| 2026-04-26 18:24 | -1.88760 | 39.79363 | 35948 ft | 457 kts | 5° |
| 2026-04-26 18:25 | -1.82407 | 39.79811 | 35951 ft | 458 kts | 5° |
| 2026-04-26 18:25 | -1.76048 | 39.80254 | 35950 ft | 459 kts | 5° |
| 2026-04-26 18:26 | -1.69670 | 39.80674 | 35947 ft | 460 kts | 5° |
| 2026-04-26 18:26 | -1.63282 | 39.81089 | 35953 ft | 460 kts | 5° |
| 2026-04-26 18:27 | -1.56887 | 39.81507 | 35951 ft | 461 kts | 5° |
| 2026-04-26 18:27 | -1.50482 | 39.81928 | 35957 ft | 461 kts | 5° |
| 2026-04-26 18:28 | -1.44073 | 39.82349 | 35952 ft | 461 kts | 5° |
| 2026-04-26 18:28 | -1.37711 | 39.82767 | 35954 ft | 461 kts | 5° |
| 2026-04-26 18:29 | -1.31313 | 39.83188 | 35954 ft | 461 kts | 5° |
| 2026-04-26 18:29 | -1.24918 | 39.83608 | 35954 ft | 460 kts | 5° |
| 2026-04-26 18:30 | -1.18541 | 39.84027 | 35954 ft | 459 kts | 5° |
| 2026-04-26 18:30 | -1.12176 | 39.84445 | 35954 ft | 458 kts | 5° |
| 2026-04-26 18:31 | -1.05823 | 39.84863 | 35954 ft | 457 kts | 5° |
| 2026-04-26 18:31 | -0.99485 | 39.85279 | 35956 ft | 456 kts | 5° |
| 2026-04-26 18:32 | -0.93151 | 39.85695 | 35955 ft | 455 kts | 5° |
| 2026-04-26 18:32 | -0.86833 | 39.86110 | 35956 ft | 455 kts | 5° |
| 2026-04-26 18:33 | -0.80517 | 39.86525 | 35952 ft | 455 kts | 5° |
| 2026-04-26 18:33 | -0.74208 | 39.86940 | 35956 ft | 454 kts | 5° |
| 2026-04-26 18:34 | -0.67901 | 39.87354 | 35948 ft | 454 kts | 5° |
| 2026-04-26 18:34 | -0.61583 | 39.87769 | 35955 ft | 455 kts | 5° |
| 2026-04-26 18:35 | -0.55273 | 39.88184 | 35954 ft | 455 kts | 5° |
| 2026-04-26 18:35 | -0.48953 | 39.88599 | 35956 ft | 455 kts | 5° |
| 2026-04-26 18:36 | -0.42636 | 39.89014 | 35954 ft | 455 kts | 5° |
| 2026-04-26 18:36 | -0.36313 | 39.89430 | 35951 ft | 455 kts | 5° |
| 2026-04-26 18:37 | -0.29992 | 39.89862 | 35954 ft | 455 kts | 6° |
| 2026-04-26 18:37 | -0.23692 | 39.90421 | 35957 ft | 455 kts | 6° |
| 2026-04-26 18:38 | -0.17431 | 39.91007 | 35949 ft | 454 kts | 6° |
| 2026-04-26 18:38 | -0.11141 | 39.91584 | 35950 ft | 454 kts | 6° |
| 2026-04-26 18:39 | -0.04860 | 39.92149 | 35949 ft | 453 kts | 6° |
| 2026-04-26 18:39 | 0.01412 | 39.92710 | 35951 ft | 452 kts | 6° |
| 2026-04-26 18:40 | 0.07669 | 39.93270 | 35949 ft | 451 kts | 6° |
| 2026-04-26 18:40 | 0.13917 | 39.93830 | 35951 ft | 450 kts | 6° |
| 2026-04-26 18:41 | 0.20158 | 39.94389 | 35948 ft | 450 kts | 6° |
| 2026-04-26 18:41 | 0.26383 | 39.94946 | 35951 ft | 449 kts | 6° |
| 2026-04-26 18:42 | 0.32617 | 39.95505 | 35953 ft | 449 kts | 6° |
| 2026-04-26 18:42 | 0.38848 | 39.96063 | 35949 ft | 450 kts | 6° |
| 2026-04-26 18:43 | 0.45081 | 39.96621 | 35951 ft | 450 kts | 6° |
| 2026-04-26 18:43 | 0.51323 | 39.97180 | 35951 ft | 451 kts | 6° |
| 2026-04-26 18:44 | 0.57574 | 39.97740 | 35951 ft | 451 kts | 6° |
| 2026-04-26 18:44 | 0.63831 | 39.98301 | 35951 ft | 452 kts | 6° |
| 2026-04-26 18:45 | 0.70108 | 39.98863 | 35951 ft | 453 kts | 6° |
| 2026-04-26 18:45 | 0.76382 | 39.99425 | 35952 ft | 454 kts | 7° |
| 2026-04-26 18:46 | 0.82679 | 39.99990 | 35952 ft | 454 kts | 7° |
| 2026-04-26 18:46 | 0.88941 | 40.00551 | 35951 ft | 455 kts | 7° |
| 2026-04-26 18:47 | 0.95290 | 40.01120 | 35950 ft | 455 kts | 7° |
| 2026-04-26 18:47 | 1.01588 | 40.01682 | 35954 ft | 455 kts | 7° |
| 2026-04-26 18:48 | 1.07862 | 40.02241 | 35953 ft | 455 kts | 7° |
| 2026-04-26 18:48 | 1.14173 | 40.02803 | 35951 ft | 455 kts | 7° |
| 2026-04-26 18:49 | 1.20480 | 40.03365 | 35949 ft | 455 kts | 7° |
| 2026-04-26 18:49 | 1.26784 | 40.03927 | 35950 ft | 455 kts | 7° |
| 2026-04-26 18:50 | 1.33090 | 40.04489 | 35952 ft | 455 kts | 7° |
| 2026-04-26 18:50 | 1.39389 | 40.05051 | 35953 ft | 454 kts | 7° |
| 2026-04-26 18:51 | 1.45677 | 40.05611 | 35941 ft | 454 kts | 7° |
| 2026-04-26 18:51 | 1.51969 | 40.06172 | 35933 ft | 454 kts | 7° |
| 2026-04-26 18:52 | 1.58267 | 40.06734 | 35921 ft | 454 kts | 6° |
| 2026-04-26 18:52 | 1.64548 | 40.07294 | 35914 ft | 453 kts | 6° |
| 2026-04-26 18:53 | 1.70829 | 40.07854 | 35912 ft | 453 kts | 6° |
| 2026-04-26 18:53 | 1.77129 | 40.07880 | 35903 ft | 456 kts | 353° |
| 2026-04-26 18:54 | 1.83380 | 40.06756 | 35911 ft | 456 kts | 351° |
| 2026-04-26 18:54 | 1.89575 | 40.05587 | 35926 ft | 456 kts | 351° |
| 2026-04-26 18:55 | 1.95828 | 40.04447 | 35937 ft | 457 kts | 351° |
| 2026-04-26 18:55 | 2.02087 | 40.03331 | 35950 ft | 457 kts | 352° |
| 2026-04-26 18:56 | 2.08354 | 40.02220 | 35963 ft | 458 kts | 352° |
| 2026-04-26 18:56 | 2.14631 | 40.01106 | 35962 ft | 458 kts | 352° |
| 2026-04-26 18:57 | 2.18831 | 40.00360 | 35963 ft | 459 kts | 351° |
| 2026-04-26 18:57 | 2.27202 | 39.98871 | 35966 ft | 459 kts | 351° |
| 2026-04-26 18:58 | 2.33489 | 39.97753 | 35966 ft | 459 kts | 351° |
| 2026-04-26 18:58 | 2.39788 | 39.96633 | 35964 ft | 459 kts | 351° |
| 2026-04-26 18:59 | 2.45019 | 39.95703 | 35964 ft | 459 kts | 351° |
| 2026-04-26 18:59 | 2.51309 | 39.94584 | 35967 ft | 459 kts | 352° |
| 2026-04-26 19:00 | 2.57594 | 39.93466 | 35972 ft | 458 kts | 351° |
| 2026-04-26 19:00 | 2.63862 | 39.92303 | 35976 ft | 458 kts | 351° |
| 2026-04-26 19:01 | 2.70118 | 39.91112 | 35976 ft | 457 kts | 351° |
| 2026-04-26 19:01 | 2.76368 | 39.89924 | 35977 ft | 457 kts | 351° |
| 2026-04-26 19:02 | 2.82608 | 39.88744 | 35982 ft | 456 kts | 351° |
| 2026-04-26 19:02 | 2.87795 | 39.87763 | 35984 ft | 456 kts | 351° |
| 2026-04-26 19:03 | 2.95083 | 39.86386 | 35978 ft | 456 kts | 351° |
| 2026-04-26 19:03 | 3.01319 | 39.85211 | 35990 ft | 456 kts | 351° |
| 2026-04-26 19:04 | 3.07518 | 39.84041 | 35991 ft | 456 kts | 351° |
| 2026-04-26 19:04 | 3.13758 | 39.82863 | 35995 ft | 457 kts | 351° |
| 2026-04-26 19:05 | 3.23133 | 39.81092 | 36002 ft | 457 kts | 351° |
| 2026-04-26 19:06 | 3.29390 | 39.79910 | 36003 ft | 458 kts | 351° |
| 2026-04-26 19:06 | 3.35646 | 39.78728 | 36003 ft | 458 kts | 351° |
| 2026-04-26 19:07 | 3.41912 | 39.77543 | 36008 ft | 459 kts | 351° |
| 2026-04-26 19:07 | 3.48192 | 39.76357 | 36011 ft | 459 kts | 351° |
| 2026-04-26 19:08 | 3.54476 | 39.75169 | 36016 ft | 459 kts | 351° |
| 2026-04-26 19:08 | 3.60757 | 39.73981 | 36019 ft | 460 kts | 351° |
| 2026-04-26 19:09 | 3.67038 | 39.72793 | 36017 ft | 460 kts | 351° |
| 2026-04-26 19:09 | 3.73322 | 39.71605 | 36024 ft | 460 kts | 351° |
| 2026-04-26 19:10 | 3.79609 | 39.70416 | 36025 ft | 459 kts | 351° |
| 2026-04-26 19:10 | 3.85884 | 39.69229 | 36024 ft | 459 kts | 351° |
| 2026-04-26 19:11 | 3.92170 | 39.68039 | 36027 ft | 459 kts | 351° |
| 2026-04-26 19:11 | 3.98446 | 39.66851 | 36027 ft | 459 kts | 351° |
| 2026-04-26 19:12 | 4.04720 | 39.65719 | 36030 ft | 458 kts | 352° |
| 2026-04-26 19:12 | 4.11005 | 39.64681 | 36036 ft | 458 kts | 352° |
| 2026-04-26 19:13 | 4.17286 | 39.63648 | 36034 ft | 457 kts | 352° |
| 2026-04-26 19:13 | 4.23562 | 39.62605 | 36035 ft | 457 kts | 352° |
| 2026-04-26 19:14 | 4.29840 | 39.61553 | 36032 ft | 457 kts | 352° |
| 2026-04-26 19:14 | 4.36068 | 39.60509 | 36033 ft | 457 kts | 352° |
| 2026-04-26 19:15 | 4.42335 | 39.59458 | 36033 ft | 457 kts | 352° |
| 2026-04-26 19:15 | 4.48600 | 39.58407 | 36028 ft | 456 kts | 352° |
| 2026-04-26 19:16 | 4.54866 | 39.57356 | 36030 ft | 457 kts | 352° |
| 2026-04-26 19:16 | 4.61130 | 39.56305 | 36031 ft | 457 kts | 352° |
| 2026-04-26 19:17 | 4.67396 | 39.55254 | 36029 ft | 457 kts | 352° |
| 2026-04-26 19:17 | 4.73668 | 39.54202 | 36033 ft | 456 kts | 352° |
| 2026-04-26 19:18 | 4.79930 | 39.53150 | 36038 ft | 456 kts | 352° |
| 2026-04-26 19:18 | 4.86198 | 39.52098 | 36031 ft | 457 kts | 352° |
| 2026-04-26 19:19 | 4.92463 | 39.51046 | 36039 ft | 457 kts | 352° |
| 2026-04-26 19:19 | 4.98737 | 39.49993 | 36043 ft | 457 kts | 352° |
| 2026-04-26 19:20 | 5.05008 | 39.48939 | 36043 ft | 457 kts | 352° |
| 2026-04-26 19:20 | 5.11281 | 39.47885 | 36050 ft | 457 kts | 352° |
| 2026-04-26 19:21 | 5.17557 | 39.46831 | 36054 ft | 457 kts | 352° |
| 2026-04-26 19:21 | 5.23829 | 39.45777 | 36057 ft | 457 kts | 352° |
| 2026-04-26 19:22 | 5.30113 | 39.44720 | 36061 ft | 457 kts | 352° |
| 2026-04-26 19:22 | 5.36386 | 39.43666 | 36062 ft | 457 kts | 352° |
| 2026-04-26 19:23 | 5.42625 | 39.42616 | 36066 ft | 457 kts | 352° |
| 2026-04-26 19:23 | 5.48944 | 39.41553 | 36064 ft | 458 kts | 352° |
| 2026-04-26 19:24 | 5.55184 | 39.40503 | 36063 ft | 458 kts | 352° |
| 2026-04-26 19:24 | 5.64611 | 39.38908 | 36064 ft | 458 kts | 350° |
| 2026-04-26 19:25 | 5.67654 | 39.37945 | 36073 ft | 460 kts | 339° |
| 2026-04-26 19:25 | 5.69602 | 39.37100 | 36084 ft | 461 kts | 338° |
| 2026-04-26 19:25 | 5.76435 | 39.33974 | 36071 ft | 462 kts | 337° |
| 2026-04-26 19:26 | 5.82290 | 39.31308 | 36069 ft | 462 kts | 338° |
| 2026-04-26 19:26 | 5.88170 | 39.28681 | 36077 ft | 463 kts | 338° |
| 2026-04-26 19:27 | 5.94060 | 39.26073 | 36075 ft | 463 kts | 338° |
| 2026-04-26 19:27 | 5.99967 | 39.23461 | 36074 ft | 464 kts | 338° |
| 2026-04-26 19:28 | 6.05875 | 39.20846 | 36077 ft | 464 kts | 338° |
| 2026-04-26 19:28 | 6.11779 | 39.18230 | 36098 ft | 464 kts | 338° |
| 2026-04-26 19:29 | 6.17690 | 39.15609 | 36087 ft | 464 kts | 338° |
| 2026-04-26 19:29 | 6.23601 | 39.12990 | 36100 ft | 464 kts | 338° |
| 2026-04-26 19:30 | 6.29465 | 39.10390 | 36109 ft | 464 kts | 338° |
| 2026-04-26 19:30 | 6.34408 | 39.08199 | 36124 ft | 463 kts | 338° |
| 2026-04-26 19:31 | 6.41307 | 39.05139 | 36130 ft | 464 kts | 338° |
| 2026-04-26 19:31 | 6.47173 | 39.02536 | 36136 ft | 464 kts | 338° |
| 2026-04-26 19:32 | 6.53077 | 38.99916 | 36156 ft | 464 kts | 337° |
| 2026-04-26 19:32 | 6.58981 | 38.97295 | 36160 ft | 464 kts | 337° |
| 2026-04-26 19:33 | 6.64878 | 38.94677 | 36169 ft | 463 kts | 337° |
| 2026-04-26 19:33 | 6.70777 | 38.92057 | 36175 ft | 463 kts | 337° |
| 2026-04-26 19:34 | 6.76664 | 38.89442 | 36179 ft | 463 kts | 337° |
| 2026-04-26 19:34 | 6.82554 | 38.86824 | 36185 ft | 462 kts | 337° |
| 2026-04-26 19:35 | 6.88435 | 38.84210 | 36180 ft | 462 kts | 337° |
| 2026-04-26 19:35 | 6.94317 | 38.81595 | 36179 ft | 462 kts | 337° |
| 2026-04-26 19:36 | 6.99204 | 38.79421 | 36177 ft | 462 kts | 337° |
| 2026-04-26 19:36 | 7.06085 | 38.76360 | 36172 ft | 463 kts | 337° |
| 2026-04-26 19:37 | 7.11971 | 38.73741 | 36170 ft | 463 kts | 337° |
| 2026-04-26 19:37 | 7.17863 | 38.71118 | 36163 ft | 463 kts | 337° |
| 2026-04-26 19:38 | 7.20822 | 38.69801 | 35924 ft | 466 kts | 337° |
| 2026-04-26 19:38 | 7.23737 | 38.68503 | 35691 ft | 463 kts | 337° |
| 2026-04-26 19:38 | 7.26711 | 38.67178 | 35443 ft | 458 kts | 337° |
| 2026-04-26 19:38 | 7.29609 | 38.65887 | 35209 ft | 453 kts | 337° |
| 2026-04-26 19:39 | 7.32487 | 38.64604 | 34978 ft | 451 kts | 338° |
| 2026-04-26 19:39 | 7.35352 | 38.63328 | 34751 ft | 450 kts | 338° |
| 2026-04-26 19:39 | 7.38211 | 38.62054 | 34521 ft | 448 kts | 338° |
| 2026-04-26 19:39 | 7.41022 | 38.60802 | 34302 ft | 447 kts | 338° |
| 2026-04-26 19:40 | 7.43862 | 38.59536 | 34041 ft | 445 kts | 338° |
| 2026-04-26 19:40 | 7.46712 | 38.58265 | 33615 ft | 440 kts | 338° |
| 2026-04-26 19:40 | 7.49460 | 38.57040 | 33197 ft | 436 kts | 338° |
| 2026-04-26 19:40 | 7.52220 | 38.55809 | 32757 ft | 432 kts | 338° |
| 2026-04-26 19:41 | 7.54960 | 38.54587 | 32348 ft | 429 kts | 338° |
| 2026-04-26 19:41 | 7.57684 | 38.53372 | 31937 ft | 427 kts | 338° |
| 2026-04-26 19:41 | 7.60392 | 38.52164 | 31509 ft | 424 kts | 338° |
| 2026-04-26 19:41 | 7.61302 | 38.51758 | 31372 ft | 423 kts | 338° |
| 2026-04-26 19:42 | 7.65764 | 38.49767 | 30666 ft | 420 kts | 338° |
| 2026-04-26 19:42 | 7.68433 | 38.48576 | 30246 ft | 419 kts | 338° |
| 2026-04-26 19:42 | 7.71092 | 38.47390 | 29762 ft | 417 kts | 338° |
| 2026-04-26 19:42 | 7.73732 | 38.46211 | 29319 ft | 414 kts | 338° |
| 2026-04-26 19:43 | 7.76353 | 38.45040 | 28889 ft | 411 kts | 338° |
| 2026-04-26 19:43 | 7.78959 | 38.43876 | 28447 ft | 408 kts | 338° |
| 2026-04-26 19:43 | 7.81551 | 38.42719 | 28026 ft | 405 kts | 338° |
| 2026-04-26 19:43 | 7.84119 | 38.41572 | 27610 ft | 403 kts | 338° |
| 2026-04-26 19:44 | 7.86676 | 38.40430 | 27199 ft | 401 kts | 338° |
| 2026-04-26 19:44 | 7.89218 | 38.39294 | 26789 ft | 399 kts | 338° |
| 2026-04-26 19:44 | 7.91751 | 38.38162 | 26377 ft | 397 kts | 339° |
| 2026-04-26 19:44 | 7.94275 | 38.37034 | 25956 ft | 396 kts | 339° |
| 2026-04-26 19:45 | 7.96791 | 38.35910 | 25534 ft | 395 kts | 339° |
| 2026-04-26 19:45 | 7.99300 | 38.34788 | 25110 ft | 394 kts | 339° |
| 2026-04-26 19:45 | 8.01810 | 38.33666 | 24705 ft | 394 kts | 339° |
| 2026-04-26 19:45 | 8.04314 | 38.32546 | 24286 ft | 394 kts | 339° |
| 2026-04-26 19:46 | 8.06816 | 38.31427 | 23874 ft | 393 kts | 339° |
| 2026-04-26 19:46 | 8.09317 | 38.30308 | 23403 ft | 393 kts | 339° |
| 2026-04-26 19:46 | 8.11814 | 38.29192 | 22985 ft | 391 kts | 339° |
| 2026-04-26 19:46 | 8.14263 | 38.28096 | 22575 ft | 389 kts | 339° |
| 2026-04-26 19:47 | 8.16849 | 38.27296 | 22116 ft | 381 kts | 358° |
| 2026-04-26 19:47 | 8.17704 | 38.27252 | 21988 ft | 378 kts | 5° |
| 2026-04-26 19:47 | 8.21760 | 38.28444 | 21364 ft | 362 kts | 33° |
| 2026-04-26 19:47 | 8.23722 | 38.29990 | 20964 ft | 356 kts | 50° |
| 2026-04-26 19:48 | 8.25347 | 38.31849 | 20592 ft | 353 kts | 44° |
| 2026-04-26 19:48 | 8.27371 | 38.33248 | 20200 ft | 355 kts | 27° |
| 2026-04-26 19:48 | 8.29656 | 38.34214 | 19720 ft | 357 kts | 23° |
| 2026-04-26 19:48 | 8.31971 | 38.35111 | 19300 ft | 356 kts | 23° |
| 2026-04-26 19:49 | 8.34287 | 38.36002 | 18899 ft | 355 kts | 23° |
| 2026-04-26 19:49 | 8.36588 | 38.36899 | 18514 ft | 354 kts | 23° |
| 2026-04-26 19:49 | 8.38872 | 38.37803 | 18083 ft | 351 kts | 23° |
| 2026-04-26 19:49 | 8.41130 | 38.38707 | 17681 ft | 348 kts | 23° |
| 2026-04-26 19:50 | 8.43371 | 38.39609 | 17293 ft | 345 kts | 23° |
| 2026-04-26 19:50 | 8.44839 | 38.40201 | 17043 ft | 342 kts | 24° |
| 2026-04-26 19:50 | 8.47783 | 38.41387 | 16536 ft | 339 kts | 23° |
| 2026-04-26 19:50 | 8.49964 | 38.42268 | 16178 ft | 336 kts | 23° |
| 2026-04-26 19:51 | 8.51394 | 38.42845 | 15936 ft | 334 kts | 23° |
| 2026-04-26 19:51 | 8.53549 | 38.43714 | 15563 ft | 332 kts | 23° |
| 2026-04-26 19:51 | 8.55688 | 38.44576 | 15190 ft | 330 kts | 22° |
| 2026-04-26 19:51 | 8.57798 | 38.45428 | 15020 ft | 321 kts | 22° |
| 2026-04-26 19:52 | 8.59850 | 38.46257 | 14855 ft | 313 kts | 22° |
| 2026-04-26 19:52 | 8.61846 | 38.47064 | 14717 ft | 305 kts | 22° |
| 2026-04-26 19:52 | 8.63791 | 38.47849 | 14590 ft | 297 kts | 22° |
| 2026-04-26 19:52 | 8.65680 | 38.48612 | 14467 ft | 289 kts | 22° |
| 2026-04-26 19:53 | 8.67521 | 38.49355 | 14345 ft | 281 kts | 23° |
| 2026-04-26 19:53 | 8.69139 | 38.50372 | 14275 ft | 270 kts | 43° |
| 2026-04-26 19:53 | 8.70302 | 38.51821 | 14275 ft | 263 kts | 53° |
| 2026-04-26 19:53 | 8.71346 | 38.53334 | 14274 ft | 263 kts | 54° |
| 2026-04-26 19:54 | 8.72412 | 38.54841 | 14295 ft | 265 kts | 47° |
| 2026-04-26 19:54 | 8.73887 | 38.55985 | 13825 ft | 279 kts | 25° |
| 2026-04-26 19:54 | 8.75694 | 38.56730 | 13401 ft | 283 kts | 22° |
| 2026-04-26 19:54 | 8.77520 | 38.57465 | 13053 ft | 280 kts | 23° |
| 2026-04-26 19:55 | 8.79304 | 38.58195 | 12700 ft | 275 kts | 23° |
| 2026-04-26 19:55 | 8.81072 | 38.58930 | 12387 ft | 275 kts | 24° |
| 2026-04-26 19:55 | 8.82827 | 38.59665 | 12049 ft | 271 kts | 24° |
| 2026-04-26 19:55 | 8.84547 | 38.60387 | 11748 ft | 265 kts | 24° |
| 2026-04-26 19:56 | 8.86230 | 38.61101 | 11432 ft | 259 kts | 28° |
| 2026-04-26 19:56 | 8.87641 | 38.62142 | 11164 ft | 245 kts | 45° |
| 2026-04-26 19:56 | 8.88854 | 38.63296 | 10905 ft | 236 kts | 45° |
| 2026-04-26 19:56 | 8.90022 | 38.64398 | 10622 ft | 230 kts | 45° |
| 2026-04-26 19:57 | 8.91161 | 38.65463 | 10439 ft | 217 kts | 45° |
| 2026-04-26 19:57 | 8.92258 | 38.66485 | 10143 ft | 210 kts | 45° |
| 2026-04-26 19:57 | 8.93165 | 38.67613 | 9861 ft | 199 kts | 63° |
| 2026-04-26 19:57 | 8.93800 | 38.68783 | 9619 ft | 185 kts | 62° |
| 2026-04-26 19:58 | 8.94396 | 38.69857 | 9382 ft | 168 kts | 62° |
| 2026-04-26 19:58 | 8.94964 | 38.70875 | 9194 ft | 167 kts | 62° |
| 2026-04-26 19:58 | 8.95489 | 38.71930 | 8973 ft | 169 kts | 70° |
| 2026-04-26 19:58 | 8.95882 | 38.73044 | 8791 ft | 168 kts | 72° |
| 2026-04-26 19:59 | 8.96192 | 38.74184 | 8572 ft | 169 kts | 76° |
| 2026-04-26 19:59 | 8.96535 | 38.75338 | 8307 ft | 172 kts | 72° |
| 2026-04-26 19:59 | 8.96876 | 38.76488 | 8103 ft | 170 kts | 75° |
| 2026-04-26 19:59 | 8.97203 | 38.77611 | 7818 ft | 165 kts | 72° |
| 2026-04-26 20:00 | 8.97534 | 38.78708 | 7623 ft | 159 kts | 73° |
| 2026-04-26 20:00 | 8.97791 | 38.79579 | 7621 ft | 98 kts | 74° |
| 2026-04-26 20:00 | 8.97919 | 38.80026 | 7623 ft | 31 kts | 73° |
| 2026-04-26 20:00 | 8.97958 | 38.80148 | 7626 ft | 15 kts | 59° |
| 2026-04-26 20:01 | 8.98024 | 38.80164 | 7624 ft | 9 kts | 350° |
| 2026-04-26 20:01 | 8.98083 | 38.80149 | 7628 ft | 9 kts | 345° |
| 2026-04-26 20:01 | 8.98140 | 38.80132 | 7623 ft | 8 kts | 343° |
| 2026-04-26 20:01 | 8.98195 | 38.80116 | 7628 ft | 8 kts | 345° |
| 2026-04-26 20:02 | 8.98248 | 38.80102 | 7623 ft | 8 kts | 342° |
| 2026-04-26 20:02 | 8.98284 | 38.80065 | 7623 ft | 7 kts | 282° |
| 2026-04-26 20:02 | 8.98278 | 38.80020 | 7627 ft | 6 kts | 255° |
| 2026-04-26 20:02 | 8.98269 | 38.79992 | 7623 ft | 6 kts | 252° |
| 2026-04-26 20:03 | 8.98253 | 38.79937 | 7623 ft | 5 kts | 266° |
| 2026-04-26 20:03 | 8.98268 | 38.79925 | 7625 ft | 2 kts | 337° |
| 2026-04-26 20:03 | 8.98293 | 38.79917 | 7622 ft | 5 kts | 343° |
| 2026-04-26 20:03 | 8.98315 | 38.79910 | 7623 ft | 0 kts | 343° |